This is the latest recevied weather packets stored in our database for station/object TULLARI. If no packets are shown the sender has not sent any weather packets the latest 10 day(s).
| Time | Temp. | Humidity | Pressure | Rain* | Wind** | Luminosity | Snow |
|---|---|---|---|---|---|---|---|
| 1777847236 | 6.11° C | 82% | 1008.2 hPa | - | - | - | - |
| 1777846037 | 6.67° C | 80% | 1008.1 hPa | - | - | - | - |
| 1777844836 | 6.11° C | 84% | 1008.3 hPa | - | - | - | - |
| 1777843636 | 6.11° C | 86% | 1008.5 hPa | - | - | - | - |
| 1777842437 | 6.11° C | 85% | 1008.4 hPa | - | - | - | - |
| 1777841237 | 6.11° C | 83% | 1008.4 hPa | - | - | - | - |
| 1777840036 | 6.67° C | 82% | 1008.4 hPa | - | - | - | - |
| 1777838837 | 6.67° C | 81% | 1008.4 hPa | - | - | - | - |
| 1777837636 | 6.67° C | 83% | 1008.5 hPa | - | - | - | - |
| 1777836435 | 6.67° C | 80% | 1008.4 hPa | - | - | - | - |
| 1777835236 | 7.22° C | 80% | 1008.5 hPa | - | - | - | - |
| 1777834036 | 7.22° C | 80% | 1008.6 hPa | - | - | - | - |
| 1777832835 | 7.22° C | 80% | 1008.5 hPa | - | - | - | - |
| 1777831635 | 7.78° C | 78% | 1008.3 hPa | - | - | - | - |
| 1777830436 | 7.78° C | 77% | 1008.2 hPa | - | - | - | - |
| 1777829242 | 7.78° C | 79% | 1008.3 hPa | - | - | - | - |
| 1777828035 | 8.33° C | 75% | 1008.4 hPa | - | - | - | - |
| 1777826835 | 8.33° C | 75% | 1008.5 hPa | - | - | - | - |
| 1777825634 | 8.33° C | 77% | 1008.4 hPa | - | - | - | - |
| 1777824436 | 8.33° C | 79% | 1008.6 hPa | - | - | - | - |
| 1777823235 | 8.33° C | 77% | 1008.7 hPa | - | - | - | - |
| 1777822035 | 7.22° C | 89% | 1009 hPa | - | - | - | - |
| 1777820835 | 8.89° C | 80% | 1008.8 hPa | - | - | - | - |
| 1777819635 | 7.78° C | 88% | 1009 hPa | - | - | - | - |
| 1777818434 | 7.78° C | 90% | 1009 hPa | - | - | - | - |
* Rain since midnight (hover to see other rain measurements)
** Current wind speed in m/s (hover to see current wind gust speed)